Mount Pocono, PA

1:08 PM EST on December 25, 2014 (GMT -0500)
Pocono Mountains Municipal | Change Station
CLOSE
Current Station
Airport
Location: Mt. Pocono,
Elevation: 1916 ft
Nearby Weather Stations

Elev 1916 ft 41.14 °N, 75.38 °W | Updated 15 minutes ago

Overcast
Overcast
41 °F
Feels Like 32 °F
N
21
Wind Variable Wind from WNW
Gusts 28 mph

Today
High -- | Low -- °F
--% Chance of Precip.
Yesterday
High -- | Low -- °F
Precip. -- in
7:25 AM 4:38 PM
Waxing Crescent, 18% visible
Pressure 29.78 in
Visibility 10.0 miles
Clouds Scattered Clouds 4300 ft
Overcast 4900 ft
Windchill 32 °F
Dew Point 29 °F
Humidity 62%
Rainfall 0.15 in
Snow Depth Not available.
UV 1 out of 12
Pollen .10 out of 12
Air Quality Not available.
Flu Activity Not available.
METAR KMPO 251753Z AUTO 30018G24KT 10SM SCT043 OVC049 05/M02 A2977 RMK AO2 PK WND 27033/1706 SLP085 T00501017 10056 20033 51023

More Conditions Fewer Conditions

Pressure 29.78 in
Visibility 10.0 miles
Clouds Scattered Clouds 4300 ft
Overcast 4900 ft
Windchill 32 °F
Dew Point 29 °F
Humidity 62%
Rainfall 0.15 in
Snow Depth Not available.
UV 1 out of 12
Pollen .10 out of 12
Air Quality Not available.
Flu Activity Not available.
METAR KMPO 251753Z AUTO 30018G24KT 10SM SCT043 OVC049 05/M02 A2977 RMK AO2 PK WND 27033/1706 SLP085 T00501017 10056 20033 51023

More Conditions Fewer Conditions

10-Day Weather Forecast

Almanac

Astronomy

Dec. 25, 2014 Rise Set
Actual Time
Civil Twilight
Nautical Twilight
Astronomical Twilight
Moon
Length of Visible Light
Length of Day
Tomorrow will be .
, % of the Moon is Illuminated

Today's Extremes

State Highs State Lows

Community

WunderPhotos

Upload Photos

1,780,351 photos uploaded!

WunderBlogs® & News

Nearby

Air Quality

  Air Quality AQ Index Pollutant
Not available.

Snow Depth

Station Depth Elevation

Earthquake Activity

City Distance Mag. Time & Date
Minimum magnitude displayed is 2.5.

Coastal Water Temperatures

Place Temperature

Nearby Weather Stations